Time;durP1;ratioP1;P1;durP2;ratioP2;P2;SDS_P1;SDS_P2;PMS_P1;PMS_P2;Temp;Humidity;BMP_temperature;BMP_pressure;BME280_temperature;BME280_humidity;BME280_pressure;Samples;Min_cycle;Max_cycle;Signal;HPM_P1;HPM_P2
2022/08/15 00:01:30;;;;;;;3.83;2.85;;;;;;;26.00;44.29;96234.38;5000444;28;20193;-73
2022/08/15 00:03:59;;;;;;;3.45;2.50;;;;;;;25.89;44.39;96237.69;4988873;28;20700;-74
2022/08/15 00:06:33;;;;;;;4.32;2.92;;;;;;;25.82;44.58;96234.91;4982879;28;20623;-74
2022/08/15 00:09:01;;;;;;;3.63;2.42;;;;;;;25.74;45.12;96233.34;4982599;28;20205;-74
2022/08/15 00:11:33;;;;;;;4.50;2.40;;;;;;;25.69;44.63;96228.34;5019580;28;20246;-73
2022/08/15 00:14:22;;;;;;;4.93;2.55;;;;;;;25.59;44.94;96224.44;4995274;28;20751;-74
2022/08/15 00:16:48;;;;;;;3.40;2.92;;;;;;;25.77;44.50;96221.91;4997706;28;20422;-74
2022/08/15 00:19:20;;;;;;;6.13;3.40;;;;;;;25.64;44.75;96220.69;4988133;28;20267;-74
2022/08/15 00:21:49;;;;;;;3.83;2.70;;;;;;;25.66;44.64;96218.41;5023283;28;20192;-74
2022/08/15 00:24:16;;;;;;;4.63;2.70;;;;;;;25.69;44.71;96223.00;4989441;28;20277;-74
2022/08/15 00:26:44;;;;;;;3.85;2.63;;;;;;;25.66;44.89;96224.50;4991134;28;20196;-74
2022/08/15 00:29:11;;;;;;;3.00;2.30;;;;;;;25.70;44.65;96224.53;4970414;28;20633;-74
2022/08/15 00:31:36;;;;;;;3.63;2.15;;;;;;;25.66;44.97;96229.06;4983876;28;20284;-74
2022/08/15 00:34:03;;;;;;;3.55;2.65;;;;;;;25.63;44.70;96237.78;4971033;28;20336;-74
2022/08/15 00:36:30;;;;;;;4.30;2.40;;;;;;;25.63;44.62;96232.47;5005463;28;20252;-74
2022/08/15 00:38:57;;;;;;;2.90;2.55;;;;;;;25.68;44.56;96232.13;5004223;28;20036;-74
2022/08/15 00:41:41;;;;;;;3.67;2.47;;;;;;;25.64;44.45;96236.66;5002714;28;20657;-74
2022/08/15 00:44:18;;;;;;;5.28;2.83;;;;;;;25.60;44.86;96245.41;4988731;28;20204;-74
2022/08/15 00:46:47;;;;;;;4.43;2.70;;;;;;;25.63;44.57;96245.78;5002784;28;20577;-74
2022/08/15 00:49:13;;;;;;;3.47;2.25;;;;;;;25.65;44.59;96238.94;4985912;28;20405;-74
2022/08/15 00:51:44;;;;;;;3.63;2.42;;;;;;;25.51;44.56;96239.56;4971359;28;20279;-73
2022/08/15 00:54:12;;;;;;;4.60;2.63;;;;;;;25.49;45.07;96241.84;5002931;28;20525;-74
2022/08/15 00:56:44;;;;;;;3.60;2.70;;;;;;;25.48;44.72;96250.97;5003355;28;20271;-73
2022/08/15 00:59:11;;;;;;;5.15;2.80;;;;;;;25.50;45.11;96251.38;4977227;28;20184;-74
2022/08/15 01:01:38;;;;;;;7.00;3.33;;;;;;;25.47;45.16;96254.75;5004385;28;20298;-75
2022/08/15 01:04:07;;;;;;;8.70;3.42;;;;;;;25.33;45.46;96254.63;5003209;28;20405;-74
2022/08/15 01:06:36;;;;;;;5.03;2.35;;;;;;;25.42;45.25;96255.09;4999512;28;20208;-74
2022/08/15 01:09:06;;;;;;;3.17;2.42;;;;;;;25.33;45.31;96252.72;4988642;28;20184;-75
2022/08/15 01:11:36;;;;;;;3.55;2.63;;;;;;;25.34;45.19;96256.91;4969399;28;20285;-74
2022/08/15 01:14:06;;;;;;;3.45;2.47;;;;;;;25.36;45.54;96256.53;5011119;28;20251;-74
2022/08/15 01:16:33;;;;;;;3.90;2.28;;;;;;;25.34;45.42;96259.56;4996789;28;20256;-74
2022/08/15 01:18:59;;;;;;;5.50;2.90;;;;;;;25.38;45.65;96262.28;4994752;28;20280;-75
2022/08/15 01:21:45;;;;;;;3.28;2.47;;;;;;;25.18;45.76;96258.97;4984660;28;20208;-74
2022/08/15 01:24:35;;;;;;;2.60;2.40;;;;;;;25.27;46.15;96261.38;4992628;28;20208;-75
2022/08/15 01:27:00;;;;;;;2.92;2.63;;;;;;;25.33;45.68;96250.03;5001336;28;20595;-74
2022/08/15 01:29:27;;;;;;;4.38;2.90;;;;;;;25.17;46.39;96260.88;4969805;28;20223;-75
2022/08/15 01:31:52;;;;;;;4.70;2.70;;;;;;;25.18;46.52;96254.41;4969572;28;20582;-74
2022/08/15 01:34:18;;;;;;;5.80;2.85;;;;;;;25.25;46.93;96256.38;4997039;28;20209;-75
2022/08/15 01:36:44;;;;;;;3.95;2.35;;;;;;;25.11;47.41;96256.97;4992296;28;20286;-75
2022/08/15 01:39:24;;;;;;;3.30;2.88;;;;;;;24.92;47.88;96267.78;5020534;28;20161;-74
2022/08/15 01:42:03;;;;;;;4.45;3.03;;;;;;;24.79;48.08;96267.97;4989420;28;20342;-75
2022/08/15 01:44:34;;;;;;;4.18;2.70;;;;;;;24.88;48.07;96267.72;5004349;28;20173;-75
2022/08/15 01:47:41;;;;;;;3.55;2.72;;;;;;;24.78;48.37;96263.78;4989103;28;20275;-75
2022/08/15 01:50:14;;;;;;;5.10;3.00;;;;;;;24.81;48.36;96262.28;4997754;28;20674;-75
2022/08/15 01:52:50;;;;;;;2.92;2.50;;;;;;;24.64;48.97;96266.22;5020055;28;20204;-74
2022/08/15 01:55:17;;;;;;;4.80;2.78;;;;;;;24.75;48.63;96259.19;4990283;28;20239;-74
2022/08/15 01:57:42;;;;;;;4.45;2.55;;;;;;;24.83;48.57;96260.81;5009236;28;20645;-74
2022/08/15 02:00:10;;;;;;;3.17;2.80;;;;;;;24.71;49.25;96261.03;4988334;28;20211;-74
2022/08/15 02:02:36;;;;;;;3.17;2.50;;;;;;;24.76;48.92;96257.28;4972859;28;20230;-74
2022/08/15 02:05:03;;;;;;;3.83;2.58;;;;;;;24.75;48.96;96264.50;4989399;28;20285;-74
2022/08/15 02:07:31;;;;;;;3.72;2.95;;;;;;;24.75;49.29;96267.16;4990685;28;20268;-74
2022/08/15 02:09:56;;;;;;;4.60;3.30;;;;;;;24.64;49.75;96260.91;5008647;28;20256;-73
2022/08/15 02:12:31;;;;;;;3.80;3.22;;;;;;;24.56;49.56;96260.06;5026162;28;20747;-74
2022/08/15 02:14:57;;;;;;;;;;;;;;;24.49;49.65;96268.66;5008460;28;20254;-74
2022/08/15 02:17:22;;;;;;;6.35;3.00;;;;;;;24.64;49.72;96264.34;5009415;28;20195;-74
2022/08/15 02:19:49;;;;;;;3.92;2.88;;;;;;;24.54;49.97;96266.81;4991374;28;20267;-73
2022/08/15 02:22:16;;;;;;;3.85;3.17;;;;;;;24.48;50.23;96261.03;4992368;28;20371;-74
2022/08/15 02:24:41;;;;;;;4.70;3.05;;;;;;;24.34;51.18;96256.28;4992588;28;20274;-74
2022/08/15 02:27:07;;;;;;;3.55;3.25;;;;;;;24.53;50.14;96254.66;4988342;28;20607;-74
2022/08/15 02:29:32;;;;;;;4.03;3.15;;;;;;;24.45;50.64;96256.41;5006366;28;20251;-74
2022/08/15 02:32:03;;;;;;;3.60;2.88;;;;;;;24.35;50.15;96249.84;4988667;28;20166;-74
2022/08/15 02:34:29;;;;;;;3.92;3.20;;;;;;;24.46;50.71;96252.66;4993241;28;20295;-75
2022/08/15 02:36:55;;;;;;;5.22;3.00;;;;;;;24.52;50.45;96256.53;4983856;28;20181;-75
2022/08/15 02:39:21;;;;;;;4.28;3.10;;;;;;;24.52;50.48;96258.44;4978016;28;20226;-74
2022/08/15 02:41:51;;;;;;;3.42;2.90;;;;;;;24.38;51.81;96258.97;4994845;28;20264;-74
2022/08/15 02:44:20;;;;;;;3.83;3.10;;;;;;;24.37;51.67;96254.78;4998447;28;20345;-74
2022/08/15 02:46:45;;;;;;;4.20;3.47;;;;;;;24.28;53.41;96257.69;5007297;28;20260;-74
2022/08/15 02:49:11;;;;;;;5.00;3.78;;;;;;;24.33;53.71;96265.34;5000564;28;20315;-74
2022/08/15 02:51:39;;;;;;;3.95;3.28;;;;;;;24.20;54.55;96267.44;4997116;28;20375;-74
2022/08/15 02:54:06;;;;;;;5.10;3.78;;;;;;;23.89;56.11;96273.78;5010696;28;20201;-74
2022/08/15 02:56:32;;;;;;;4.57;3.50;;;;;;;23.84;55.67;96279.38;4981852;28;20201;-75
2022/08/15 02:58:58;;;;;;;4.45;2.90;;;;;;;23.75;55.64;96275.03;4984767;28;20361;-74
2022/08/15 03:01:26;;;;;;;6.00;3.60;;;;;;;23.55;56.34;96276.16;4991657;28;20256;-74
2022/08/15 03:03:53;;;;;;;7.30;3.85;;;;;;;23.47;57.20;96277.13;5000292;28;20347;-74
2022/08/15 03:06:24;;;;;;;3.35;2.95;;;;;;;23.53;56.39;96273.84;4978787;28;20184;-74
2022/08/15 03:09:00;;;;;;;4.57;3.40;;;;;;;23.38;56.95;96272.78;4990051;28;20170;-75
2022/08/15 03:11:26;;;;;;;3.30;3.00;;;;;;;23.42;56.97;96272.88;4988167;28;20671;-74
2022/08/15 03:13:53;;;;;;;3.38;2.70;;;;;;;23.43;56.91;96268.34;4995814;28;20200;-74
2022/08/15 03:16:18;;;;;;;6.25;3.30;;;;;;;23.24;57.77;96261.16;4979352;28;20208;-74
2022/08/15 03:18:44;;;;;;;4.78;2.80;;;;;;;23.24;58.05;96267.22;4990450;28;20202;-74
2022/08/15 03:21:16;;;;;;;3.17;2.75;;;;;;;23.11;57.92;96268.47;4993383;28;20282;-75
2022/08/15 03:23:48;;;;;;;4.78;3.20;;;;;;;23.02;58.23;96265.97;5007854;28;20192;-75
2022/08/15 03:26:19;;;;;;;4.03;2.80;;;;;;;23.06;58.50;96260.75;4987102;28;20622;-74
2022/08/15 03:28:44;;;;;;;3.97;2.88;;;;;;;23.03;58.59;96266.75;4988957;28;20177;-75
2022/08/15 03:31:10;;;;;;;4.82;3.70;;;;;;;23.03;58.84;96266.75;5005623;28;20136;-75
2022/08/15 03:33:38;;;;;;;4.75;3.35;;;;;;;22.95;59.23;96266.59;4987482;28;20193;-74
2022/08/15 03:36:05;;;;;;;5.25;3.70;;;;;;;23.02;58.88;96265.97;4957602;28;20250;-74
2022/08/15 03:38:30;;;;;;;3.60;2.75;;;;;;;23.00;58.91;96268.97;4981629;28;20686;-75
2022/08/15 03:40:56;;;;;;;3.15;2.85;;;;;;;22.88;59.06;96265.69;4994271;28;20292;-75
2022/08/15 03:43:28;;;;;;;4.85;3.45;;;;;;;22.78;59.91;96266.97;4996166;28;20681;-75
2022/08/15 03:45:58;;;;;;;3.58;3.20;;;;;;;22.72;59.97;96271.00;4968532;28;20628;-75
2022/08/15 03:48:29;;;;;;;6.32;3.53;;;;;;;22.72;60.42;96277.09;4954050;28;20179;-74
2022/08/15 03:50:56;;;;;;;4.75;3.38;;;;;;;22.67;60.24;96276.56;4990291;28;20631;-74
2022/08/15 03:53:22;;;;;;;4.85;3.15;;;;;;;22.74;60.46;96279.38;4963135;28;20435;-74
2022/08/15 03:55:47;;;;;;;4.75;3.55;;;;;;;22.71;60.74;96274.78;4992243;28;20189;-74
2022/08/15 03:58:13;;;;;;;4.43;3.30;;;;;;;22.66;60.84;96277.72;4990877;28;20247;-74
2022/08/15 04:00:43;;;;;;;3.47;3.10;;;;;;;22.34;62.46;96264.47;4971884;28;20370;-75
2022/08/15 04:03:13;;;;;;;6.90;3.80;;;;;;;22.45;61.71;96276.09;5004679;28;20193;-74
2022/08/15 04:05:39;;;;;;;4.30;3.60;;;;;;;22.31;61.84;96273.88;4972488;28;20468;-75
2022/08/15 04:08:07;;;;;;;6.22;4.10;;;;;;;22.32;62.17;96269.34;4985743;28;20176;-75
2022/08/15 04:10:33;;;;;;;4.47;3.90;;;;;;;22.23;61.99;96270.25;4963820;28;20271;-75
2022/08/15 04:12:59;;;;;;;6.20;4.18;;;;;;;22.26;61.69;96277.53;5006851;28;20340;-75
2022/08/15 04:15:27;;;;;;;5.15;4.40;;;;;;;22.24;62.35;96268.38;4987608;28;20336;-74
2022/08/15 04:17:53;;;;;;;6.85;5.40;;;;;;;21.93;62.94;96261.16;4986676;28;20679;-74
2022/08/15 04:20:19;;;;;;;4.95;4.45;;;;;;;22.05;62.75;96269.03;4956132;28;20206;-74
2022/08/15 04:22:47;;;;;;;7.50;5.15;;;;;;;22.00;62.98;96266.66;4986875;28;20198;-74
2022/08/15 04:25:19;;;;;;;6.18;4.68;;;;;;;21.94;62.79;96268.78;4984144;28;20138;-74
2022/08/15 04:27:50;;;;;;;5.47;4.97;;;;;;;21.91;63.33;96266.06;4970404;28;20711;-74
2022/08/15 04:30:16;;;;;;;6.85;5.00;;;;;;;21.91;63.25;96256.22;4999806;28;20212;-74
2022/08/15 04:32:42;;;;;;;5.07;4.68;;;;;;;21.95;62.36;96258.94;5026110;28;20438;-74
2022/08/15 04:35:10;;;;;;;5.68;4.93;;;;;;;21.92;63.20;96259.63;5006163;28;20218;-74
2022/08/15 04:37:39;;;;;;;6.28;5.47;;;;;;;21.94;63.32;96262.72;4988638;28;20193;-73
2022/08/15 04:40:12;;;;;;;5.55;4.97;;;;;;;21.97;62.89;96257.50;5023256;28;20722;-74
2022/08/15 04:42:49;;;;;;;6.40;5.35;;;;;;;21.85;63.18;96260.22;4988155;28;20151;-74
2022/08/15 04:45:15;;;;;;;5.65;5.15;;;;;;;21.89;63.32;96261.84;4982925;28;20174;-74
2022/08/15 04:47:40;;;;;;;5.22;4.70;;;;;;;21.96;62.68;96257.84;4989160;28;20202;-74
2022/08/15 04:50:06;;;;;;;5.65;5.07;;;;;;;21.84;63.14;96254.16;4973686;28;20784;-74
2022/08/15 04:52:31;;;;;;;7.05;5.40;;;;;;;21.83;63.39;96249.19;5016138;28;20213;-74
2022/08/15 04:54:58;;;;;;;6.70;5.65;;;;;;;21.83;63.17;96251.84;5003481;28;20269;-74
2022/08/15 04:57:23;;;;;;;5.07;4.10;;;;;;;21.86;62.87;96251.16;5026711;28;20244;-74
2022/08/15 04:59:49;;;;;;;6.38;5.07;;;;;;;21.96;62.40;96257.84;5008435;28;20396;-74
2022/08/15 05:02:14;;;;;;;6.13;4.55;;;;;;;21.95;62.26;96253.66;5007528;28;20212;-74
2022/08/15 05:04:40;;;;;;;5.55;4.88;;;;;;;21.94;62.44;96260.84;4991956;28;20170;-74
2022/08/15 05:07:05;;;;;;;5.38;4.65;;;;;;;21.93;62.89;96255.88;4988734;28;20303;-74
2022/08/15 05:09:31;;;;;;;5.72;4.75;;;;;;;21.92;62.70;96265.72;4998482;28;20188;-74
2022/08/15 05:11:57;;;;;;;5.20;4.70;;;;;;;21.88;62.86;96257.66;5011473;28;20217;-74
2022/08/15 05:14:23;;;;;;;6.32;4.80;;;;;;;21.91;62.76;96263.41;4973729;28;20338;-74
2022/08/15 05:16:48;;;;;;;5.53;4.43;;;;;;;21.95;62.72;96265.03;4992250;28;20331;-74
2022/08/15 05:19:13;;;;;;;6.75;4.45;;;;;;;21.95;62.66;96264.25;5006577;27;20427;-74
2022/08/15 05:21:39;;;;;;;5.35;4.78;;;;;;;21.97;62.53;96267.31;4998694;27;20204;-74
2022/08/15 05:24:05;;;;;;;5.18;4.50;;;;;;;21.98;62.35;96268.88;4989565;28;20710;-74
2022/08/15 05:26:32;;;;;;;5.28;4.78;;;;;;;21.90;62.99;96273.25;5009373;28;20273;-74
2022/08/15 05:28:58;;;;;;;6.03;4.15;;;;;;;21.93;62.46;96272.53;4979689;27;20271;-74
2022/08/15 05:31:23;;;;;;;6.40;5.07;;;;;;;21.92;62.65;96267.56;4994769;27;20333;-74
2022/08/15 05:33:49;;;;;;;5.65;4.68;;;;;;;21.83;63.34;96265.88;5000266;28;20315;-74
2022/08/15 05:36:14;;;;;;;4.57;4.18;;;;;;;21.86;62.93;96267.81;4978959;28;20279;-74
2022/08/15 05:38:56;;;;;;;4.78;3.75;;;;;;;21.82;62.55;96269.63;4982600;28;20209;-74
2022/08/15 05:41:27;;;;;;;5.25;4.13;;;;;;;21.91;62.47;96266.81;4996510;28;20639;-73
2022/08/15 05:44:12;;;;;;;4.93;3.80;;;;;;;21.91;62.46;96268.69;5007285;27;20606;-74
2022/08/15 05:47:04;;;;;;;5.93;4.30;;;;;;;21.91;62.33;96274.75;4991407;28;20202;-74
2022/08/15 05:49:52;;;;;;;5.00;3.95;;;;;;;21.82;63.00;96277.56;4993404;28;20194;-73
2022/08/15 05:52:31;;;;;;;4.55;4.10;;;;;;;21.78;62.67;96270.63;5009672;28;20196;-73
2022/08/15 05:55:15;;;;;;;4.53;3.83;;;;;;;21.70;63.07;96278.41;5018078;27;20186;-74
2022/08/15 05:57:40;;;;;;;5.57;3.97;;;;;;;21.82;62.77;96282.88;4992990;28;20320;-74
2022/08/15 06:00:13;;;;;;;5.80;4.40;;;;;;;21.80;62.42;96279.78;5035161;27;20195;-74
2022/08/15 06:02:48;;;;;;;4.50;4.10;;;;;;;21.68;62.99;96290.47;5039136;27;20626;-73
2022/08/15 06:05:19;;;;;;;5.32;3.90;;;;;;;21.66;62.94;96287.34;4996500;27;20595;-74
2022/08/15 06:07:47;;;;;;;6.15;4.72;;;;;;;21.82;62.85;96288.16;4994037;27;20188;-73
2022/08/15 06:10:25;;;;;;;4.63;4.20;;;;;;;21.75;63.13;96282.69;4991921;28;20166;-73
2022/08/15 06:12:54;;;;;;;4.25;3.60;;;;;;;21.99;62.39;96291.63;5015297;27;20183;-73
2022/08/15 06:15:47;;;;;;;4.85;4.43;;;;;;;21.88;62.71;96291.34;5026565;27;20226;-74
2022/08/15 06:18:13;;;;;;;4.60;4.07;;;;;;;22.24;62.53;96287.72;5003188;27;20261;-74
2022/08/15 06:21:01;;;;;;;4.40;4.00;;;;;;;22.22;63.04;96294.47;5026666;27;20257;-74
2022/08/15 06:23:41;;;;;;;4.82;4.25;;;;;;;22.31;63.29;96291.66;5012089;27;20251;-74
2022/08/15 06:26:12;;;;;;;3.88;3.55;;;;;;;22.51;62.14;96295.19;4975739;28;20258;-74
2022/08/15 06:28:46;;;;;;;4.20;3.80;;;;;;;22.54;62.42;96295.25;4992357;27;20170;-75
2022/08/15 06:31:48;;;;;;;4.88;4.47;;;;;;;22.47;62.29;96291.69;5033457;27;20605;-75
2022/08/15 06:34:47;;;;;;;4.43;3.97;;;;;;;22.48;61.50;96291.31;4946523;28;20257;-74
2022/08/15 06:37:48;;;;;;;4.78;3.83;;;;;;;22.51;60.89;96290.63;4978370;28;20140;-74
2022/08/15 06:40:19;;;;;;;5.18;3.97;;;;;;;22.69;60.17;96290.25;4986466;27;20181;-74
2022/08/15 06:42:45;;;;;;;3.80;3.50;;;;;;;22.63;60.87;96287.88;4991361;27;20772;-75
2022/08/15 06:45:17;;;;;;;4.43;3.95;;;;;;;22.44;61.17;96290.47;5008123;27;20303;-77
2022/08/15 06:47:44;;;;;;;3.65;3.20;;;;;;;22.55;60.58;96288.84;4975921;28;20189;-75
2022/08/15 06:50:16;;;;;;;4.85;3.85;;;;;;;22.38;61.07;96297.94;4999739;28;20150;-75
2022/08/15 06:52:46;;;;;;;11.10;3.92;;;;;;;22.43;61.21;96294.22;4991884;28;20189;-75
2022/08/15 06:55:12;;;;;;;4.45;3.97;;;;;;;22.40;61.22;96287.75;4976937;27;20182;-75
2022/08/15 06:57:45;;;;;;;4.63;4.20;;;;;;;22.34;61.23;96291.00;5016731;27;20181;-74
2022/08/15 07:00:39;;;;;;;3.97;3.60;;;;;;;22.25;61.15;96291.88;5011765;27;20249;-74
2022/08/15 07:03:09;;;;;;;4.10;3.80;;;;;;;22.37;61.67;96285.75;4978699;27;20266;-75
2022/08/15 07:05:55;;;;;;;4.63;4.22;;;;;;;22.35;61.57;96295.94;5028849;27;20303;-75
2022/08/15 07:08:33;;;;;;;5.55;3.95;;;;;;;22.24;61.16;96297.53;4994943;27;20255;-75
2022/08/15 07:11:17;;;;;;;4.35;3.95;;;;;;;22.29;61.23;96305.25;5011421;27;20215;-75
2022/08/15 07:14:30;;;;;;;3.83;3.53;;;;;;;22.35;61.51;96297.84;5028636;27;20613;-75
2022/08/15 07:17:12;;;;;;;5.40;4.32;;;;;;;22.36;61.43;96309.97;4996974;27;20308;-74
2022/08/15 07:19:38;;;;;;;6.15;3.90;;;;;;;22.54;60.69;96305.09;5011222;27;20199;-74
2022/08/15 07:22:05;;;;;;;4.28;3.80;;;;;;;22.56;60.41;96306.28;5011320;27;20265;-75
2022/08/15 07:24:32;;;;;;;4.38;3.95;;;;;;;22.63;60.02;96308.34;5028183;27;20273;-74
2022/08/15 07:27:10;;;;;;;7.85;4.78;;;;;;;22.49;60.65;96310.66;4994642;27;20644;-74
2022/08/15 07:29:38;;;;;;;5.28;4.78;;;;;;;22.56;60.61;96308.94;5028189;27;20653;-74
2022/08/15 07:32:13;;;;;;;5.18;4.30;;;;;;;22.62;60.08;96320.09;5027786;27;20196;-75
2022/08/15 07:35:02;;;;;;;3.90;3.60;;;;;;;22.62;60.53;96314.78;5011089;27;20208;-75
2022/08/15 07:37:34;;;;;;;5.47;4.28;;;;;;;22.72;60.15;96308.16;5027921;27;20166;-75
2022/08/15 07:40:22;;;;;;;5.57;4.80;;;;;;;22.70;60.15;96319.13;5011163;27;20118;-75
2022/08/15 07:42:48;;;;;;;4.88;4.47;;;;;;;22.96;60.52;96315.13;5026584;27;20641;-75
2022/08/15 07:45:20;;;;;;;4.55;4.15;;;;;;;22.89;59.95;96320.28;5011375;27;20192;-74
2022/08/15 07:47:57;;;;;;;5.85;5.10;;;;;;;23.03;60.24;96309.22;5010794;27;20244;-74
2022/08/15 07:50:33;;;;;;;5.30;4.80;;;;;;;23.16;59.67;96316.75;5027612;27;20806;-74
2022/08/15 07:53:16;;;;;;;4.93;4.53;;;;;;;23.18;59.05;96313.75;5011089;27;20250;-75
2022/08/15 07:55:45;;;;;;;4.82;4.25;;;;;;;23.40;58.34;96311.53;5011308;27;20219;-74
2022/08/15 07:58:13;;;;;;;4.97;4.53;;;;;;;23.37;58.73;96313.78;4994200;27;20188;-75
2022/08/15 08:00:39;;;;;;;4.85;4.38;;;;;;;23.43;58.44;96314.25;5027200;27;20695;-75
2022/08/15 08:03:16;;;;;;;4.97;4.47;;;;;;;23.42;58.72;96320.69;5010732;27;20208;-74
2022/08/15 08:06:09;;;;;;;4.82;4.35;;;;;;;23.53;57.91;96321.69;5010901;27;20673;-75
2022/08/15 08:08:43;;;;;;;4.57;4.03;;;;;;;23.56;58.23;96328.16;5027653;27;20268;-75
2022/08/15 08:11:17;;;;;;;4.53;4.13;;;;;;;23.60;57.79;96323.72;5027300;27;20267;-75
2022/08/15 08:14:02;;;;;;;5.07;4.53;;;;;;;23.74;57.80;96323.97;5010932;27;20360;-74
2022/08/15 08:17:03;;;;;;;4.78;4.38;;;;;;;23.73;56.40;96325.13;4993707;27;20158;-75
2022/08/15 08:19:58;;;;;;;5.13;4.38;;;;;;;23.68;56.99;96325.41;5010297;27;20230;-75
2022/08/15 08:22:38;;;;;;;4.28;3.97;;;;;;;23.80;56.54;96315.72;4922133;27;20260;-74
2022/08/15 08:25:23;;;;;;;4.75;4.35;;;;;;;24.00;57.26;96322.56;5010520;27;20241;-74
2022/08/15 08:27:57;;;;;;;5.13;4.70;;;;;;;23.93;55.81;96325.09;4969431;27;20290;-75
2022/08/15 08:30:26;;;;;;;4.93;4.43;;;;;;;24.00;56.04;96327.88;5010070;27;20643;-74
2022/08/15 08:33:13;;;;;;;5.18;4.22;;;;;;;23.97;56.00;96328.59;5010388;28;20218;-74
2022/08/15 08:35:43;;;;;;;4.68;4.20;;;;;;;24.03;55.80;96332.50;5005202;28;20213;-75
2022/08/15 08:38:33;;;;;;;4.88;4.35;;;;;;;24.01;55.30;96326.78;4987711;28;20293;-75
2022/08/15 08:44:07;;;;;;;5.18;4.68;;;;;;;23.97;56.19;96325.16;5022122;28;20684;-75
2022/08/15 08:46:54;;;;;;;4.90;4.40;;;;;;;23.93;55.51;96325.88;5003310;28;20276;-74
2022/08/15 08:49:30;;;;;;;5.93;5.20;;;;;;;23.94;55.47;96334.63;5006470;28;20262;-74
2022/08/15 08:52:07;;;;;;;5.57;4.55;;;;;;;24.02;55.98;96344.25;5006731;28;20201;-75
2022/08/15 08:54:44;;;;;;;5.45;4.85;;;;;;;23.89;56.18;96346.31;5011132;28;20217;-74
2022/08/15 08:57:13;;;;;;;5.18;4.78;;;;;;;23.94;55.83;96358.56;5010967;28;20198;-75
2022/08/15 09:00:20;;;;;;;5.22;4.72;;;;;;;23.87;55.53;96353.88;4994005;28;20178;-75
2022/08/15 09:02:56;;;;;;;4.72;4.32;;;;;;;23.96;55.67;96353.66;4946238;28;20278;-74
2022/08/15 09:05:30;;;;;;;20.73;5.75;;;;;;;24.00;56.07;96365.13;4929737;28;20221;-74
2022/08/15 09:08:03;;;;;;;4.72;4.00;;;;;;;24.09;54.60;96352.38;4929673;28;20186;-75
2022/08/15 09:10:34;;;;;;;3.75;3.40;;;;;;;24.11;54.39;96358.13;4912946;28;20173;-75
2022/08/15 09:15:47;;;;;;;4.00;3.70;;;;;;;24.07;54.70;96362.59;4946093;28;20670;-74
2022/08/15 09:18:22;;;;;;;3.72;3.40;;;;;;;24.10;55.23;96355.81;4929421;28;20260;-75
2022/08/15 09:20:48;;;;;;;4.85;4.18;;;;;;;24.38;54.18;96360.84;4913235;28;20367;-75
2022/08/15 09:23:15;;;;;;;4.20;3.65;;;;;;;24.45;54.64;96363.66;4930011;28;20301;-77
2022/08/15 09:25:57;;;;;;;3.80;3.50;;;;;;;24.38;54.30;96360.84;4929466;28;20635;-75
2022/08/15 09:28:31;;;;;;;3.67;3.42;;;;;;;24.54;53.99;96376.75;4913166;28;20400;-75
2022/08/15 09:31:24;;;;;;;4.00;3.60;;;;;;;24.61;53.58;96371.53;4928828;28;20463;-74
2022/08/15 09:34:10;;;;;;;3.15;2.75;;;;;;;24.53;53.45;96363.75;4929209;28;20209;-75
2022/08/15 09:36:59;;;;;;;2.65;2.45;;;;;;;24.53;52.85;96375.16;4941223;28;20167;-74
2022/08/15 09:39:52;;;;;;;2.75;2.55;;;;;;;24.61;52.14;96370.78;5027208;28;20293;-74
2022/08/15 09:42:30;;;;;;;2.78;2.42;;;;;;;24.65;51.53;96375.00;5009815;28;20120;-74
2022/08/15 09:45:17;;;;;;;3.50;2.40;;;;;;;24.55;51.01;96361.53;5020342;27;20625;-75
2022/08/15 09:48:22;;;;;;;3.58;2.50;;;;;;;24.68;51.03;96360.25;5009408;28;20654;-74
2022/08/15 09:50:53;;;;;;;3.45;2.90;;;;;;;24.95;51.25;96355.72;4992717;28;20181;-75
2022/08/15 09:53:40;;;;;;;2.90;2.60;;;;;;;25.07;51.34;96354.72;5028144;28;20293;-75
2022/08/15 09:56:10;;;;;;;3.45;2.17;;;;;;;25.43;49.88;96347.25;5009362;28;20162;-75
2022/08/15 09:58:49;;;;;;;2.63;2.20;;;;;;;25.84;48.79;96352.69;5009242;28;20748;-75
2022/08/15 10:01:20;;;;;;;5.13;2.60;;;;;;;26.08;48.73;96350.66;4975405;28;20197;-76
2022/08/15 10:03:46;;;;;;;2.67;2.47;;;;;;;26.50;47.57;96344.94;5012282;27;20216;-75
2022/08/15 10:06:16;;;;;;;3.80;2.67;;;;;;;26.76;46.31;96351.28;5007670;28;20623;-75
2022/08/15 10:08:57;;;;;;;2.60;2.40;;;;;;;27.05;45.90;96354.91;5009494;28;20701;-75
2022/08/15 10:11:32;;;;;;;2.75;2.55;;;;;;;27.45;45.23;96345.22;5008959;28;20707;-75
2022/08/15 10:14:08;;;;;;;2.33;2.13;;;;;;;27.15;45.38;96339.31;5009139;28;20278;-75
2022/08/15 10:16:36;;;;;;;2.83;2.63;;;;;;;26.86;45.66;96333.78;5009135;28;20197;-75
2022/08/15 10:19:09;;;;;;;2.50;2.30;;;;;;;26.49;46.78;96342.63;5027587;28;20163;-75
2022/08/15 10:21:40;;;;;;;2.83;2.63;;;;;;;26.37;47.06;96337.59;5008814;28;20305;-75
2022/08/15 10:24:24;;;;;;;2.30;2.10;;;;;;;26.23;47.13;96346.22;4975859;28;20831;-75
2022/08/15 10:27:17;;;;;;;2.50;2.28;;;;;;;26.48;46.50;96338.44;4991994;28;20647;-75
2022/08/15 10:29:50;;;;;;;3.00;2.38;;;;;;;27.30;44.83;96330.25;4992992;28;20182;-75
2022/08/15 10:32:42;;;;;;;2.72;2.53;;;;;;;27.21;46.29;96332.47;5008697;28;20300;-75
2022/08/15 10:35:33;;;;;;;2.67;2.47;;;;;;;27.99;44.61;96331.28;5004602;28;20230;-75
2022/08/15 10:38:02;;;;;;;2.78;2.10;;;;;;;28.32;41.39;96330.19;5008509;28;20204;-75
2022/08/15 10:40:53;;;;;;;3.08;2.60;;;;;;;28.20;42.63;96325.19;5013107;27;20204;-75
2022/08/15 10:43:47;;;;;;;2.70;2.50;;;;;;;27.77;42.90;96336.53;5011900;27;20224;-75
2022/08/15 10:46:41;;;;;;;2.50;2.30;;;;;;;27.62;43.19;96326.94;5008249;28;20674;-75
2022/08/15 10:49:40;;;;;;;3.35;2.50;;;;;;;27.24;44.83;96327.13;5008070;28;20251;-75
2022/08/15 10:52:18;;;;;;;3.60;2.70;;;;;;;27.15;44.40;96325.97;5008056;28;20206;-75
2022/08/15 10:55:08;;;;;;;3.28;2.67;;;;;;;26.88;45.27;96332.28;4992088;28;20719;-75
2022/08/15 10:57:41;;;;;;;3.50;2.72;;;;;;;27.12;44.93;96335.47;4991645;28;20121;-75
2022/08/15 11:00:07;;;;;;;2.50;2.30;;;;;;;27.26;44.92;96322.22;5008093;28;20662;-75
2022/08/15 11:02:46;;;;;;;3.17;2.60;;;;;;;27.35;45.61;96324.56;5008165;28;20688;-75
2022/08/15 11:05:19;;;;;;;3.15;2.65;;;;;;;27.94;42.57;96318.28;5008578;28;20171;-75
2022/08/15 11:07:52;;;;;;;3.10;2.80;;;;;;;27.70;43.68;96320.47;5008942;28;20199;-75
2022/08/15 11:10:20;;;;;;;2.88;2.67;;;;;;;27.66;43.31;96317.03;4974516;28;20408;-75
2022/08/15 11:12:48;;;;;;;3.20;2.90;;;;;;;27.47;44.73;96312.78;4991355;28;20694;-75
2022/08/15 11:15:32;;;;;;;4.07;2.80;;;;;;;27.76;44.85;96324.34;4991230;28;20213;-75
2022/08/15 11:18:04;;;;;;;2.85;2.60;;;;;;;28.25;43.12;96313.34;5026115;28;20575;-75
2022/08/15 11:20:42;;;;;;;2.70;2.50;;;;;;;28.22;42.35;96317.53;5008013;28;20646;-76
2022/08/15 11:23:09;;;;;;;2.85;2.58;;;;;;;28.09;42.88;96319.84;5008426;28;20634;-76
2022/08/15 11:25:39;;;;;;;3.25;2.95;;;;;;;27.94;42.23;96318.28;4991329;28;20221;-75
2022/08/15 11:28:04;;;;;;;3.17;2.90;;;;;;;27.92;42.24;96315.22;5008187;28;20239;-76
2022/08/15 11:30:39;;;;;;;3.97;3.30;;;;;;;28.02;41.94;96312.56;5026136;28;20209;-75
2022/08/15 11:33:21;;;;;;;3.45;3.13;;;;;;;28.17;41.47;96310.69;4991447;28;20208;-75
2022/08/15 11:35:48;;;;;;;3.53;3.22;;;;;;;28.40;41.36;96302.25;5020020;28;20294;-75
2022/08/15 11:38:16;;;;;;;3.40;3.10;;;;;;;28.31;40.13;96304.56;5006476;28;20274;-75
2022/08/15 11:40:42;;;;;;;3.38;3.08;;;;;;;28.29;40.22;96311.44;5004264;28;20244;-76
2022/08/15 11:43:14;;;;;;;3.17;2.88;;;;;;;28.12;40.24;96312.94;5004612;28;20269;-75
2022/08/15 11:45:43;;;;;;;3.22;2.92;;;;;;;28.27;40.30;96313.72;4987960;28;20214;-75
2022/08/15 11:48:21;;;;;;;3.60;3.30;;;;;;;28.20;40.45;96309.91;4986871;28;20283;-75
2022/08/15 11:50:57;;;;;;;3.33;3.03;;;;;;;28.27;40.15;96313.72;4987296;28;20205;-75
2022/08/15 11:53:27;;;;;;;3.22;3.03;;;;;;;28.02;40.10;96303.78;5004393;28;20269;-75
2022/08/15 11:55:52;;;;;;;4.38;3.40;;;;;;;28.13;40.42;96307.22;4987453;28;20186;-75
2022/08/15 11:58:30;;;;;;;3.65;2.90;;;;;;;28.15;39.99;96302.25;5004202;28;20148;-75
2022/08/15 12:00:58;;;;;;;3.20;2.95;;;;;;;28.80;37.73;96296.91;4986975;28;20252;-75
2022/08/15 12:03:32;;;;;;;5.70;3.22;;;;;;;29.00;38.24;96289.22;4987292;28;20205;-75
2022/08/15 12:06:28;;;;;;;4.10;2.90;;;;;;;29.41;37.06;96285.28;4968084;28;20288;-75
2022/08/15 12:08:53;;;;;;;2.70;2.50;;;;;;;30.45;35.23;96273.88;4983786;28;20664;-75